KABR/ABR METAR and TAF weather

Enter ICAO airport designator
Station Type Date Time Source
KABR METAR 2021/07/28 02:53 UTC NOAA

KABR 280253Z AUTO 08008KT 10SM CLR 28/24 A2990 RMK AO2 SLP114 T02780244 55004


Station Type Date Time Source
KABR Decoded METAR 2021/07/28 02:53 UTC NOAA

ABERDEEN REGIONAL AIRPORT, SD, United States (KABR) 45-27N 098-25W 400M
Jul 27, 2021 - 10:53 PM EDT / 2021.07.28 0253 UTC
Wind: from the E (080 degrees) at 9 MPH (8 KT):0
Visibility: 10 mile(s):0
Sky conditions: clear
Temperature: 82.0 F (27.8 C)
Dew Point: 75.9 F (24.4 C)
Relative Humidity: 81%
Pressure (altimeter): 29.9 in. Hg (1012 hPa)
Pressure tendency: 0.01 inches (0.4 hPa) lower than three hours ago
ob: KABR 280253Z AUTO 08008KT 10SM CLR 28/24 A2990 RMK AO2 SLP114 T02780244 55004
cycle: 3

Station Type Date Time Source
KABR TAF 2021/07/27 18:22 UTC NOAA

TAF KABR 271720Z 2718/2818 09006KT P6SM SCT250
FM272100 11009KT P6SM SCT250
FM281000 15010G18KT P6SM BKN250

Example: see airport list